sensor_id;sensor_type;location;lat;lon;timestamp;P1;durP1;ratioP1;P2;durP2;ratioP2
39434;SDS011;30098;51.880;-0.518;2022-07-29T00:00:58;1.08;;;0.88;;
39434;SDS011;30098;51.880;-0.518;2022-07-29T00:03:24;1.20;;;0.80;;
39434;SDS011;30098;51.880;-0.518;2022-07-29T00:05:49;1.13;;;0.80;;
39434;SDS011;30098;51.880;-0.518;2022-07-29T00:08:15;1.27;;;1.00;;
39434;SDS011;30098;51.880;-0.518;2022-07-29T00:10:40;2.38;;;0.90;;
39434;SDS011;30098;51.880;-0.518;2022-07-29T00:13:07;1.58;;;0.85;;
39434;SDS011;30098;51.880;-0.518;2022-07-29T00:15:32;1.42;;;0.98;;
39434;SDS011;30098;51.880;-0.518;2022-07-29T00:17:58;1.10;;;0.90;;
39434;SDS011;30098;51.880;-0.518;2022-07-29T00:20:24;1.52;;;1.10;;
39434;SDS011;30098;51.880;-0.518;2022-07-29T00:22:50;1.15;;;0.70;;
39434;SDS011;30098;51.880;-0.518;2022-07-29T00:25:16;1.25;;;0.90;;
39434;SDS011;30098;51.880;-0.518;2022-07-29T00:27:41;1.73;;;0.85;;
39434;SDS011;30098;51.880;-0.518;2022-07-29T00:30:07;1.05;;;0.77;;
39434;SDS011;30098;51.880;-0.518;2022-07-29T00:32:33;1.10;;;0.75;;
39434;SDS011;30098;51.880;-0.518;2022-07-29T00:34:59;1.42;;;1.00;;
39434;SDS011;30098;51.880;-0.518;2022-07-29T00:37:43;1.60;;;0.88;;
39434;SDS011;30098;51.880;-0.518;2022-07-29T00:40:09;1.90;;;0.85;;
39434;SDS011;30098;51.880;-0.518;2022-07-29T00:42:44;1.60;;;1.00;;
39434;SDS011;30098;51.880;-0.518;2022-07-29T00:45:11;1.15;;;0.80;;
39434;SDS011;30098;51.880;-0.518;2022-07-29T00:47:38;1.02;;;0.75;;
39434;SDS011;30098;51.880;-0.518;2022-07-29T00:50:04;1.10;;;0.80;;
39434;SDS011;30098;51.880;-0.518;2022-07-29T00:52:31;1.10;;;0.90;;
39434;SDS011;30098;51.880;-0.518;2022-07-29T00:54:57;1.08;;;0.80;;
39434;SDS011;30098;51.880;-0.518;2022-07-29T00:57:23;1.30;;;0.80;;
39434;SDS011;30098;51.880;-0.518;2022-07-29T00:59:48;1.50;;;0.80;;
39434;SDS011;30098;51.880;-0.518;2022-07-29T01:02:14;1.25;;;0.90;;
39434;SDS011;30098;51.880;-0.518;2022-07-29T01:04:39;1.17;;;0.93;;
39434;SDS011;30098;51.880;-0.518;2022-07-29T01:07:06;1.65;;;0.98;;
39434;SDS011;30098;51.880;-0.518;2022-07-29T01:09:32;1.65;;;0.98;;
39434;SDS011;30098;51.880;-0.518;2022-07-29T01:11:58;1.13;;;0.88;;
39434;SDS011;30098;51.880;-0.518;2022-07-29T01:14:25;1.33;;;0.80;;
39434;SDS011;30098;51.880;-0.518;2022-07-29T01:16:52;1.25;;;0.80;;
39434;SDS011;30098;51.880;-0.518;2022-07-29T01:30:24;1.35;;;0.90;;
39434;SDS011;30098;51.880;-0.518;2022-07-29T01:32:54;1.20;;;0.80;;
39434;SDS011;30098;51.880;-0.518;2022-07-29T01:40:24;1.02;;;0.90;;
39434;SDS011;30098;51.880;-0.518;2022-07-29T01:43:12;1.33;;;0.88;;
39434;SDS011;30098;51.880;-0.518;2022-07-29T01:48:18;1.00;;;0.80;;
39434;SDS011;30098;51.880;-0.518;2022-07-29T01:50:49;0.88;;;0.80;;
39434;SDS011;30098;51.880;-0.518;2022-07-29T01:53:26;1.52;;;1.10;;
39434;SDS011;30098;51.880;-0.518;2022-07-29T01:56:06;0.85;;;0.75;;
39434;SDS011;30098;51.880;-0.518;2022-07-29T01:58:35;1.30;;;0.80;;
39434;SDS011;30098;51.880;-0.518;2022-07-29T02:01:04;0.77;;;0.77;;
39434;SDS011;30098;51.880;-0.518;2022-07-29T02:03:33;0.82;;;0.73;;
39434;SDS011;30098;51.880;-0.518;2022-07-29T02:06:01;1.33;;;1.00;;
39434;SDS011;30098;51.880;-0.518;2022-07-29T02:08:29;0.93;;;0.75;;
39434;SDS011;30098;51.880;-0.518;2022-07-29T02:10:57;0.98;;;0.80;;
39434;SDS011;30098;51.880;-0.518;2022-07-29T02:13:24;1.38;;;0.80;;
39434;SDS011;30098;51.880;-0.518;2022-07-29T02:15:54;2.00;;;1.15;;
39434;SDS011;30098;51.880;-0.518;2022-07-29T02:18:22;0.82;;;0.80;;
39434;SDS011;30098;51.880;-0.518;2022-07-29T02:20:51;1.20;;;1.00;;
39434;SDS011;30098;51.880;-0.518;2022-07-29T02:23:20;1.10;;;1.00;;
39434;SDS011;30098;51.880;-0.518;2022-07-29T02:25:54;1.45;;;1.02;;
39434;SDS011;30098;51.880;-0.518;2022-07-29T02:28:21;1.00;;;0.90;;
39434;SDS011;30098;51.880;-0.518;2022-07-29T02:30:50;1.03;;;0.70;;
39434;SDS011;30098;51.880;-0.518;2022-07-29T02:33:18;1.23;;;0.80;;
39434;SDS011;30098;51.880;-0.518;2022-07-29T02:35:46;1.15;;;0.82;;
39434;SDS011;30098;51.880;-0.518;2022-07-29T02:38:13;0.98;;;0.73;;
39434;SDS011;30098;51.880;-0.518;2022-07-29T02:41:00;1.05;;;0.80;;
39434;SDS011;30098;51.880;-0.518;2022-07-29T02:43:28;1.67;;;0.98;;
39434;SDS011;30098;51.880;-0.518;2022-07-29T02:45:56;1.15;;;0.80;;
39434;SDS011;30098;51.880;-0.518;2022-07-29T02:48:27;1.20;;;0.80;;
39434;SDS011;30098;51.880;-0.518;2022-07-29T02:51:04;1.17;;;0.80;;
39434;SDS011;30098;51.880;-0.518;2022-07-29T02:53:37;0.75;;;0.60;;
39434;SDS011;30098;51.880;-0.518;2022-07-29T02:56:13;1.00;;;0.73;;
39434;SDS011;30098;51.880;-0.518;2022-07-29T02:58:44;1.00;;;0.70;;
39434;SDS011;30098;51.880;-0.518;2022-07-29T03:01:15;1.20;;;0.80;;
39434;SDS011;30098;51.880;-0.518;2022-07-29T03:06:11;0.93;;;0.75;;
39434;SDS011;30098;51.880;-0.518;2022-07-29T03:08:40;1.40;;;0.80;;
39434;SDS011;30098;51.880;-0.518;2022-07-29T03:11:07;1.27;;;0.80;;
39434;SDS011;30098;51.880;-0.518;2022-07-29T03:13:34;1.40;;;0.70;;
39434;SDS011;30098;51.880;-0.518;2022-07-29T03:16:00;1.00;;;0.80;;
39434;SDS011;30098;51.880;-0.518;2022-07-29T03:18:27;0.98;;;0.70;;
39434;SDS011;30098;51.880;-0.518;2022-07-29T03:20:53;1.50;;;0.80;;
39434;SDS011;30098;51.880;-0.518;2022-07-29T03:23:19;1.13;;;0.80;;
39434;SDS011;30098;51.880;-0.518;2022-07-29T03:25:48;0.95;;;0.82;;
39434;SDS011;30098;51.880;-0.518;2022-07-29T03:28:14;1.33;;;0.70;;
39434;SDS011;30098;51.880;-0.518;2022-07-29T03:30:40;0.90;;;0.70;;
39434;SDS011;30098;51.880;-0.518;2022-07-29T03:33:05;1.05;;;0.85;;
39434;SDS011;30098;51.880;-0.518;2022-07-29T03:35:31;1.30;;;0.90;;
39434;SDS011;30098;51.880;-0.518;2022-07-29T03:37:57;1.05;;;0.70;;
39434;SDS011;30098;51.880;-0.518;2022-07-29T03:40:25;0.70;;;0.70;;
39434;SDS011;30098;51.880;-0.518;2022-07-29T03:42:55;1.05;;;0.65;;
39434;SDS011;30098;51.880;-0.518;2022-07-29T03:45:21;1.40;;;1.02;;
39434;SDS011;30098;51.880;-0.518;2022-07-29T03:47:50;1.17;;;0.80;;
39434;SDS011;30098;51.880;-0.518;2022-07-29T03:50:20;1.10;;;0.80;;
39434;SDS011;30098;51.880;-0.518;2022-07-29T03:52:47;0.80;;;0.70;;
39434;SDS011;30098;51.880;-0.518;2022-07-29T03:55:13;1.08;;;0.77;;
39434;SDS011;30098;51.880;-0.518;2022-07-29T03:57:39;1.48;;;0.90;;
39434;SDS011;30098;51.880;-0.518;2022-07-29T04:00:06;1.23;;;0.90;;
39434;SDS011;30098;51.880;-0.518;2022-07-29T04:02:32;1.10;;;0.80;;
39434;SDS011;30098;51.880;-0.518;2022-07-29T04:04:58;1.00;;;0.90;;
39434;SDS011;30098;51.880;-0.518;2022-07-29T04:07:24;0.82;;;0.80;;
39434;SDS011;30098;51.880;-0.518;2022-07-29T04:09:49;0.93;;;0.75;;
39434;SDS011;30098;51.880;-0.518;2022-07-29T04:12:15;0.95;;;0.70;;
39434;SDS011;30098;51.880;-0.518;2022-07-29T04:14:40;1.23;;;0.73;;
39434;SDS011;30098;51.880;-0.518;2022-07-29T04:17:06;1.40;;;0.80;;
39434;SDS011;30098;51.880;-0.518;2022-07-29T04:19:32;1.00;;;0.90;;
39434;SDS011;30098;51.880;-0.518;2022-07-29T04:21:58;0.82;;;0.73;;
39434;SDS011;30098;51.880;-0.518;2022-07-29T04:24:24;1.25;;;1.00;;
39434;SDS011;30098;51.880;-0.518;2022-07-29T04:26:50;1.42;;;0.88;;
39434;SDS011;30098;51.880;-0.518;2022-07-29T04:29:16;1.17;;;0.75;;
39434;SDS011;30098;51.880;-0.518;2022-07-29T04:31:42;0.85;;;0.65;;
39434;SDS011;30098;51.880;-0.518;2022-07-29T04:34:08;1.00;;;0.75;;
39434;SDS011;30098;51.880;-0.518;2022-07-29T04:36:34;1.45;;;0.80;;
39434;SDS011;30098;51.880;-0.518;2022-07-29T04:38:59;1.00;;;0.88;;
39434;SDS011;30098;51.880;-0.518;2022-07-29T04:41:26;1.17;;;0.70;;
39434;SDS011;30098;51.880;-0.518;2022-07-29T04:43:52;0.85;;;0.70;;
39434;SDS011;30098;51.880;-0.518;2022-07-29T04:46:18;0.90;;;0.70;;
39434;SDS011;30098;51.880;-0.518;2022-07-29T04:48:45;1.17;;;0.80;;
39434;SDS011;30098;51.880;-0.518;2022-07-29T04:51:11;0.75;;;0.70;;
39434;SDS011;30098;51.880;-0.518;2022-07-29T04:53:37;0.60;;;0.60;;
39434;SDS011;30098;51.880;-0.518;2022-07-29T04:56:02;1.30;;;0.80;;
39434;SDS011;30098;51.880;-0.518;2022-07-29T04:58:28;1.00;;;0.70;;
39434;SDS011;30098;51.880;-0.518;2022-07-29T05:00:53;0.80;;;0.70;;
39434;SDS011;30098;51.880;-0.518;2022-07-29T05:03:19;0.77;;;0.68;;
39434;SDS011;30098;51.880;-0.518;2022-07-29T05:05:44;0.90;;;0.75;;
39434;SDS011;30098;51.880;-0.518;2022-07-29T05:08:10;0.80;;;0.73;;
39434;SDS011;30098;51.880;-0.518;2022-07-29T05:10:36;1.48;;;0.80;;
39434;SDS011;30098;51.880;-0.518;2022-07-29T05:13:06;1.10;;;0.77;;
39434;SDS011;30098;51.880;-0.518;2022-07-29T05:15:34;1.35;;;0.80;;
39434;SDS011;30098;51.880;-0.518;2022-07-29T05:18:00;1.10;;;0.70;;
39434;SDS011;30098;51.880;-0.518;2022-07-29T05:20:26;0.80;;;0.80;;
39434;SDS011;30098;51.880;-0.518;2022-07-29T05:22:57;0.65;;;0.65;;
39434;SDS011;30098;51.880;-0.518;2022-07-29T05:25:24;0.70;;;0.68;;
39434;SDS011;30098;51.880;-0.518;2022-07-29T05:27:53;1.13;;;0.98;;
39434;SDS011;30098;51.880;-0.518;2022-07-29T05:30:19;0.90;;;0.77;;
39434;SDS011;30098;51.880;-0.518;2022-07-29T05:32:45;0.90;;;0.80;;
39434;SDS011;30098;51.880;-0.518;2022-07-29T05:35:11;0.93;;;0.70;;
39434;SDS011;30098;51.880;-0.518;2022-07-29T05:37:38;0.85;;;0.80;;
39434;SDS011;30098;51.880;-0.518;2022-07-29T05:40:04;1.38;;;0.80;;
39434;SDS011;30098;51.880;-0.518;2022-07-29T05:42:32;1.27;;;0.70;;
39434;SDS011;30098;51.880;-0.518;2022-07-29T05:44:57;1.02;;;0.80;;
39434;SDS011;30098;51.880;-0.518;2022-07-29T05:47:23;0.90;;;0.68;;
39434;SDS011;30098;51.880;-0.518;2022-07-29T05:49:49;1.33;;;0.70;;
39434;SDS011;30098;51.880;-0.518;2022-07-29T05:52:15;1.10;;;0.90;;
39434;SDS011;30098;51.880;-0.518;2022-07-29T05:54:41;1.10;;;0.82;;
39434;SDS011;30098;51.880;-0.518;2022-07-29T05:57:06;0.75;;;0.70;;
39434;SDS011;30098;51.880;-0.518;2022-07-29T05:59:38;1.25;;;0.88;;
39434;SDS011;30098;51.880;-0.518;2022-07-29T06:02:04;0.93;;;0.70;;
39434;SDS011;30098;51.880;-0.518;2022-07-29T06:04:32;1.25;;;0.75;;
39434;SDS011;30098;51.880;-0.518;2022-07-29T06:06:58;1.00;;;0.65;;
39434;SDS011;30098;51.880;-0.518;2022-07-29T06:09:24;1.02;;;0.80;;
39434;SDS011;30098;51.880;-0.518;2022-07-29T06:11:51;1.10;;;0.70;;
39434;SDS011;30098;51.880;-0.518;2022-07-29T06:14:17;0.90;;;0.70;;
39434;SDS011;30098;51.880;-0.518;2022-07-29T06:16:43;0.70;;;0.70;;
39434;SDS011;30098;51.880;-0.518;2022-07-29T06:19:08;0.80;;;0.70;;
39434;SDS011;30098;51.880;-0.518;2022-07-29T06:21:34;0.80;;;0.65;;
39434;SDS011;30098;51.880;-0.518;2022-07-29T06:23:59;0.88;;;0.70;;
39434;SDS011;30098;51.880;-0.518;2022-07-29T06:26:25;1.00;;;0.85;;
39434;SDS011;30098;51.880;-0.518;2022-07-29T06:28:50;0.80;;;0.60;;
39434;SDS011;30098;51.880;-0.518;2022-07-29T06:31:16;1.20;;;0.80;;
39434;SDS011;30098;51.880;-0.518;2022-07-29T06:33:41;1.00;;;0.70;;
39434;SDS011;30098;51.880;-0.518;2022-07-29T06:36:07;0.82;;;0.70;;
39434;SDS011;30098;51.880;-0.518;2022-07-29T06:38:33;1.02;;;0.82;;
39434;SDS011;30098;51.880;-0.518;2022-07-29T06:40:59;1.23;;;0.90;;
39434;SDS011;30098;51.880;-0.518;2022-07-29T06:43:35;0.98;;;0.75;;
39434;SDS011;30098;51.880;-0.518;2022-07-29T06:46:04;0.80;;;0.80;;
39434;SDS011;30098;51.880;-0.518;2022-07-29T06:48:32;1.58;;;0.90;;
39434;SDS011;30098;51.880;-0.518;2022-07-29T06:50:58;0.75;;;0.60;;
39434;SDS011;30098;51.880;-0.518;2022-07-29T06:53:24;1.00;;;0.70;;
39434;SDS011;30098;51.880;-0.518;2022-07-29T06:55:50;0.80;;;0.80;;
39434;SDS011;30098;51.880;-0.518;2022-07-29T06:58:16;0.75;;;0.70;;
39434;SDS011;30098;51.880;-0.518;2022-07-29T07:00:43;1.35;;;0.85;;
39434;SDS011;30098;51.880;-0.518;2022-07-29T07:03:10;0.70;;;0.60;;
39434;SDS011;30098;51.880;-0.518;2022-07-29T07:05:36;0.75;;;0.70;;
39434;SDS011;30098;51.880;-0.518;2022-07-29T07:08:02;0.90;;;0.77;;
39434;SDS011;30098;51.880;-0.518;2022-07-29T07:10:27;0.80;;;0.60;;
39434;SDS011;30098;51.880;-0.518;2022-07-29T07:12:53;0.95;;;0.70;;
39434;SDS011;30098;51.880;-0.518;2022-07-29T07:15:18;0.60;;;0.60;;
39434;SDS011;30098;51.880;-0.518;2022-07-29T07:17:47;1.10;;;0.70;;
39434;SDS011;30098;51.880;-0.518;2022-07-29T07:20:14;0.90;;;0.70;;
39434;SDS011;30098;51.880;-0.518;2022-07-29T07:22:40;1.40;;;0.70;;
39434;SDS011;30098;51.880;-0.518;2022-07-29T07:25:06;0.93;;;0.70;;
39434;SDS011;30098;51.880;-0.518;2022-07-29T07:27:31;0.73;;;0.70;;
39434;SDS011;30098;51.880;-0.518;2022-07-29T07:29:57;0.80;;;0.70;;
39434;SDS011;30098;51.880;-0.518;2022-07-29T07:32:22;1.05;;;0.70;;
39434;SDS011;30098;51.880;-0.518;2022-07-29T07:34:48;0.80;;;0.70;;
39434;SDS011;30098;51.880;-0.518;2022-07-29T07:37:13;1.52;;;0.82;;
39434;SDS011;30098;51.880;-0.518;2022-07-29T07:39:40;0.70;;;0.63;;
39434;SDS011;30098;51.880;-0.518;2022-07-29T07:42:05;0.75;;;0.70;;
39434;SDS011;30098;51.880;-0.518;2022-07-29T07:44:31;0.93;;;0.73;;
39434;SDS011;30098;51.880;-0.518;2022-07-29T07:46:56;2.83;;;0.90;;
39434;SDS011;30098;51.880;-0.518;2022-07-29T07:49:22;5.90;;;1.15;;
39434;SDS011;30098;51.880;-0.518;2022-07-29T07:51:48;4.38;;;0.98;;
39434;SDS011;30098;51.880;-0.518;2022-07-29T07:54:14;4.68;;;1.40;;
39434;SDS011;30098;51.880;-0.518;2022-07-29T07:56:39;5.07;;;1.27;;
39434;SDS011;30098;51.880;-0.518;2022-07-29T07:59:05;5.18;;;1.45;;
39434;SDS011;30098;51.880;-0.518;2022-07-29T08:01:31;6.10;;;1.27;;
39434;SDS011;30098;51.880;-0.518;2022-07-29T08:03:56;5.78;;;1.45;;
39434;SDS011;30098;51.880;-0.518;2022-07-29T08:06:22;5.03;;;1.40;;
39434;SDS011;30098;51.880;-0.518;2022-07-29T08:08:50;4.63;;;1.23;;
39434;SDS011;30098;51.880;-0.518;2022-07-29T08:11:15;4.28;;;1.38;;
39434;SDS011;30098;51.880;-0.518;2022-07-29T08:13:42;5.88;;;1.17;;
39434;SDS011;30098;51.880;-0.518;2022-07-29T08:16:08;4.18;;;1.30;;
39434;SDS011;30098;51.880;-0.518;2022-07-29T08:18:37;4.60;;;1.30;;
39434;SDS011;30098;51.880;-0.518;2022-07-29T08:21:04;6.43;;;1.40;;
39434;SDS011;30098;51.880;-0.518;2022-07-29T08:23:29;6.63;;;1.50;;
39434;SDS011;30098;51.880;-0.518;2022-07-29T08:26:07;5.78;;;1.52;;
39434;SDS011;30098;51.880;-0.518;2022-07-29T08:28:39;5.68;;;1.20;;
39434;SDS011;30098;51.880;-0.518;2022-07-29T08:31:06;5.05;;;0.90;;
39434;SDS011;30098;51.880;-0.518;2022-07-29T08:33:32;4.18;;;1.13;;
39434;SDS011;30098;51.880;-0.518;2022-07-29T08:35:58;5.15;;;1.35;;
39434;SDS011;30098;51.880;-0.518;2022-07-29T08:38:24;4.75;;;1.20;;
39434;SDS011;30098;51.880;-0.518;2022-07-29T08:40:51;5.60;;;1.08;;
39434;SDS011;30098;51.880;-0.518;2022-07-29T08:43:18;4.03;;;1.25;;
39434;SDS011;30098;51.880;-0.518;2022-07-29T08:45:45;5.60;;;0.98;;
39434;SDS011;30098;51.880;-0.518;2022-07-29T08:48:12;3.75;;;1.08;;
39434;SDS011;30098;51.880;-0.518;2022-07-29T08:50:39;4.25;;;1.50;;
39434;SDS011;30098;51.880;-0.518;2022-07-29T08:53:07;4.13;;;1.17;;
39434;SDS011;30098;51.880;-0.518;2022-07-29T08:55:38;8.82;;;1.17;;
39434;SDS011;30098;51.880;-0.518;2022-07-29T08:58:04;4.32;;;1.05;;
39434;SDS011;30098;51.880;-0.518;2022-07-29T09:00:30;4.88;;;1.17;;
39434;SDS011;30098;51.880;-0.518;2022-07-29T09:02:57;4.05;;;1.08;;
39434;SDS011;30098;51.880;-0.518;2022-07-29T09:05:24;3.83;;;1.10;;
39434;SDS011;30098;51.880;-0.518;2022-07-29T09:07:51;5.75;;;0.95;;
39434;SDS011;30098;51.880;-0.518;2022-07-29T09:10:17;4.10;;;0.95;;
39434;SDS011;30098;51.880;-0.518;2022-07-29T09:12:43;3.33;;;0.93;;
39434;SDS011;30098;51.880;-0.518;2022-07-29T09:15:08;2.03;;;0.90;;
39434;SDS011;30098;51.880;-0.518;2022-07-29T09:17:44;5.07;;;0.93;;
39434;SDS011;30098;51.880;-0.518;2022-07-29T09:20:15;3.03;;;0.93;;
39434;SDS011;30098;51.880;-0.518;2022-07-29T09:22:45;3.17;;;0.98;;
39434;SDS011;30098;51.880;-0.518;2022-07-29T09:25:14;3.50;;;1.02;;
39434;SDS011;30098;51.880;-0.518;2022-07-29T09:28:10;6.40;;;1.10;;
39434;SDS011;30098;51.880;-0.518;2022-07-29T09:30:58;4.13;;;1.30;;
39434;SDS011;30098;51.880;-0.518;2022-07-29T09:33:25;5.53;;;1.00;;
39434;SDS011;30098;51.880;-0.518;2022-07-29T09:36:00;4.25;;;1.00;;
39434;SDS011;30098;51.880;-0.518;2022-07-29T09:38:29;5.50;;;1.20;;
39434;SDS011;30098;51.880;-0.518;2022-07-29T09:40:58;3.78;;;1.20;;
39434;SDS011;30098;51.880;-0.518;2022-07-29T09:43:25;2.67;;;0.88;;
39434;SDS011;30098;51.880;-0.518;2022-07-29T09:45:51;2.75;;;1.17;;
39434;SDS011;30098;51.880;-0.518;2022-07-29T09:48:18;4.18;;;1.10;;
39434;SDS011;30098;51.880;-0.518;2022-07-29T09:50:48;8.85;;;1.55;;
39434;SDS011;30098;51.880;-0.518;2022-07-29T09:56:02;5.75;;;1.27;;
39434;SDS011;30098;51.880;-0.518;2022-07-29T09:58:31;3.67;;;1.00;;
39434;SDS011;30098;51.880;-0.518;2022-07-29T10:01:00;5.40;;;1.73;;
39434;SDS011;30098;51.880;-0.518;2022-07-29T10:03:26;5.05;;;1.52;;
39434;SDS011;30098;51.880;-0.518;2022-07-29T10:06:05;5.95;;;1.40;;
39434;SDS011;30098;51.880;-0.518;2022-07-29T10:11:13;5.68;;;1.20;;
39434;SDS011;30098;51.880;-0.518;2022-07-29T10:13:41;3.80;;;1.00;;
39434;SDS011;30098;51.880;-0.518;2022-07-29T10:16:08;4.18;;;0.90;;
39434;SDS011;30098;51.880;-0.518;2022-07-29T10:18:34;6.55;;;1.20;;
39434;SDS011;30098;51.880;-0.518;2022-07-29T10:21:00;3.50;;;1.00;;
39434;SDS011;30098;51.880;-0.518;2022-07-29T10:23:27;7.00;;;1.70;;
39434;SDS011;30098;51.880;-0.518;2022-07-29T10:25:54;6.57;;;1.38;;
39434;SDS011;30098;51.880;-0.518;2022-07-29T10:28:20;4.75;;;1.30;;
39434;SDS011;30098;51.880;-0.518;2022-07-29T10:30:45;7.43;;;1.58;;
39434;SDS011;30098;51.880;-0.518;2022-07-29T10:41:43;5.15;;;1.23;;
39434;SDS011;30098;51.880;-0.518;2022-07-29T10:44:29;4.75;;;1.30;;
39434;SDS011;30098;51.880;-0.518;2022-07-29T10:46:55;7.28;;;1.60;;
39434;SDS011;30098;51.880;-0.518;2022-07-29T10:59:42;3.30;;;1.10;;
39434;SDS011;30098;51.880;-0.518;2022-07-29T11:07:21;2.28;;;0.90;;
39434;SDS011;30098;51.880;-0.518;2022-07-29T11:15:03;3.05;;;0.93;;
39434;SDS011;30098;51.880;-0.518;2022-07-29T11:18:04;2.10;;;1.10;;
39434;SDS011;30098;51.880;-0.518;2022-07-29T11:20:41;2.75;;;1.30;;
39434;SDS011;30098;51.880;-0.518;2022-07-29T11:23:31;3.08;;;1.40;;
39434;SDS011;30098;51.880;-0.518;2022-07-29T11:29:24;1.90;;;1.10;;
39434;SDS011;30098;51.880;-0.518;2022-07-29T11:31:47;3.40;;;1.20;;
39434;SDS011;30098;51.880;-0.518;2022-07-29T11:34:29;5.55;;;1.30;;
39434;SDS011;30098;51.880;-0.518;2022-07-29T11:39:32;3.60;;;1.48;;
39434;SDS011;30098;51.880;-0.518;2022-07-29T11:47:34;4.65;;;1.42;;
39434;SDS011;30098;51.880;-0.518;2022-07-29T11:50:06;3.88;;;1.20;;
39434;SDS011;30098;51.880;-0.518;2022-07-29T11:52:37;3.97;;;1.35;;
39434;SDS011;30098;51.880;-0.518;2022-07-29T11:55:09;4.97;;;1.40;;
39434;SDS011;30098;51.880;-0.518;2022-07-29T11:57:36;2.65;;;1.20;;
39434;SDS011;30098;51.880;-0.518;2022-07-29T12:00:06;5.82;;;1.83;;
39434;SDS011;30098;51.880;-0.518;2022-07-29T12:02:39;4.78;;;1.30;;
39434;SDS011;30098;51.880;-0.518;2022-07-29T12:05:09;6.20;;;1.83;;
39434;SDS011;30098;51.880;-0.518;2022-07-29T12:07:38;6.45;;;1.55;;
39434;SDS011;30098;51.880;-0.518;2022-07-29T12:10:06;5.80;;;1.50;;
39434;SDS011;30098;51.880;-0.518;2022-07-29T12:12:33;5.57;;;1.30;;
39434;SDS011;30098;51.880;-0.518;2022-07-29T12:15:16;4.50;;;1.17;;
39434;SDS011;30098;51.880;-0.518;2022-07-29T12:17:45;5.57;;;1.33;;
39434;SDS011;30098;51.880;-0.518;2022-07-29T12:20:11;5.75;;;1.50;;
39434;SDS011;30098;51.880;-0.518;2022-07-29T12:22:41;4.25;;;1.20;;
39434;SDS011;30098;51.880;-0.518;2022-07-29T12:25:13;5.10;;;1.35;;
39434;SDS011;30098;51.880;-0.518;2022-07-29T12:27:40;5.38;;;1.17;;
39434;SDS011;30098;51.880;-0.518;2022-07-29T12:30:10;3.42;;;1.38;;
39434;SDS011;30098;51.880;-0.518;2022-07-29T12:32:38;6.70;;;1.30;;
39434;SDS011;30098;51.880;-0.518;2022-07-29T12:35:18;7.85;;;1.50;;
39434;SDS011;30098;51.880;-0.518;2022-07-29T12:37:46;4.78;;;1.40;;
39434;SDS011;30098;51.880;-0.518;2022-07-29T12:40:15;4.53;;;1.45;;
39434;SDS011;30098;51.880;-0.518;2022-07-29T12:45:38;5.07;;;1.30;;
39434;SDS011;30098;51.880;-0.518;2022-07-29T12:48:06;5.53;;;1.30;;
39434;SDS011;30098;51.880;-0.518;2022-07-29T12:50:34;6.43;;;1.48;;
39434;SDS011;30098;51.880;-0.518;2022-07-29T12:53:08;7.03;;;1.50;;
39434;SDS011;30098;51.880;-0.518;2022-07-29T12:55:45;4.72;;;1.35;;
39434;SDS011;30098;51.880;-0.518;2022-07-29T12:58:27;5.18;;;1.20;;
39434;SDS011;30098;51.880;-0.518;2022-07-29T13:01:05;5.65;;;1.73;;
39434;SDS011;30098;51.880;-0.518;2022-07-29T13:03:43;6.05;;;1.40;;
39434;SDS011;30098;51.880;-0.518;2022-07-29T13:09:11;5.50;;;1.40;;
39434;SDS011;30098;51.880;-0.518;2022-07-29T13:14:36;4.03;;;1.25;;
39434;SDS011;30098;51.880;-0.518;2022-07-29T13:22:11;3.13;;;1.58;;
39434;SDS011;30098;51.880;-0.518;2022-07-29T13:24:47;3.30;;;1.27;;
39434;SDS011;30098;51.880;-0.518;2022-07-29T13:27:16;4.03;;;1.55;;
39434;SDS011;30098;51.880;-0.518;2022-07-29T13:29:42;3.35;;;1.38;;
39434;SDS011;30098;51.880;-0.518;2022-07-29T13:32:08;5.22;;;1.50;;
39434;SDS011;30098;51.880;-0.518;2022-07-29T13:34:33;3.30;;;1.20;;
39434;SDS011;30098;51.880;-0.518;2022-07-29T13:36:59;2.85;;;1.10;;
39434;SDS011;30098;51.880;-0.518;2022-07-29T13:39:24;3.17;;;1.23;;
39434;SDS011;30098;51.880;-0.518;2022-07-29T13:41:50;4.75;;;1.20;;
39434;SDS011;30098;51.880;-0.518;2022-07-29T13:44:16;5.10;;;1.30;;
39434;SDS011;30098;51.880;-0.518;2022-07-29T13:46:41;5.05;;;1.40;;
39434;SDS011;30098;51.880;-0.518;2022-07-29T13:49:07;4.53;;;1.48;;
39434;SDS011;30098;51.880;-0.518;2022-07-29T13:51:32;3.95;;;1.20;;
39434;SDS011;30098;51.880;-0.518;2022-07-29T13:53:58;2.72;;;1.20;;
39434;SDS011;30098;51.880;-0.518;2022-07-29T13:56:23;4.00;;;1.27;;
39434;SDS011;30098;51.880;-0.518;2022-07-29T13:58:49;4.97;;;1.30;;
39434;SDS011;30098;51.880;-0.518;2022-07-29T14:01:14;5.68;;;1.50;;
39434;SDS011;30098;51.880;-0.518;2022-07-29T14:03:40;4.40;;;1.27;;
39434;SDS011;30098;51.880;-0.518;2022-07-29T14:06:08;4.88;;;1.20;;
39434;SDS011;30098;51.880;-0.518;2022-07-29T14:08:33;5.28;;;1.60;;
39434;SDS011;30098;51.880;-0.518;2022-07-29T14:10:59;6.72;;;1.40;;
39434;SDS011;30098;51.880;-0.518;2022-07-29T14:13:25;7.15;;;1.17;;
39434;SDS011;30098;51.880;-0.518;2022-07-29T14:15:50;5.10;;;1.30;;
39434;SDS011;30098;51.880;-0.518;2022-07-29T14:18:16;4.93;;;1.23;;
39434;SDS011;30098;51.880;-0.518;2022-07-29T14:20:41;4.88;;;1.30;;
39434;SDS011;30098;51.880;-0.518;2022-07-29T14:23:07;3.53;;;1.20;;
39434;SDS011;30098;51.880;-0.518;2022-07-29T14:25:32;3.78;;;1.20;;
39434;SDS011;30098;51.880;-0.518;2022-07-29T14:27:58;3.22;;;1.20;;
39434;SDS011;30098;51.880;-0.518;2022-07-29T14:30:23;5.32;;;1.50;;
39434;SDS011;30098;51.880;-0.518;2022-07-29T14:32:49;4.97;;;1.50;;
39434;SDS011;30098;51.880;-0.518;2022-07-29T14:35:14;3.08;;;1.25;;
39434;SDS011;30098;51.880;-0.518;2022-07-29T14:37:40;4.00;;;1.20;;
39434;SDS011;30098;51.880;-0.518;2022-07-29T14:40:06;4.13;;;1.58;;
39434;SDS011;30098;51.880;-0.518;2022-07-29T14:42:33;5.07;;;1.73;;
39434;SDS011;30098;51.880;-0.518;2022-07-29T14:44:58;6.40;;;1.77;;
39434;SDS011;30098;51.880;-0.518;2022-07-29T14:47:24;3.05;;;1.35;;
39434;SDS011;30098;51.880;-0.518;2022-07-29T14:49:50;5.45;;;1.30;;
39434;SDS011;30098;51.880;-0.518;2022-07-29T14:52:15;3.90;;;1.40;;
39434;SDS011;30098;51.880;-0.518;2022-07-29T14:54:41;3.53;;;1.13;;
39434;SDS011;30098;51.880;-0.518;2022-07-29T14:57:06;3.58;;;1.48;;
39434;SDS011;30098;51.880;-0.518;2022-07-29T14:59:32;4.38;;;1.25;;
39434;SDS011;30098;51.880;-0.518;2022-07-29T15:01:57;3.03;;;1.30;;
39434;SDS011;30098;51.880;-0.518;2022-07-29T15:04:23;3.10;;;1.25;;
39434;SDS011;30098;51.880;-0.518;2022-07-29T15:06:49;3.70;;;1.40;;
39434;SDS011;30098;51.880;-0.518;2022-07-29T15:09:15;4.22;;;1.60;;
39434;SDS011;30098;51.880;-0.518;2022-07-29T15:11:40;4.10;;;1.27;;
39434;SDS011;30098;51.880;-0.518;2022-07-29T15:14:06;7.43;;;1.40;;
39434;SDS011;30098;51.880;-0.518;2022-07-29T15:16:32;4.75;;;1.30;;
39434;SDS011;30098;51.880;-0.518;2022-07-29T15:18:57;3.92;;;1.20;;
39434;SDS011;30098;51.880;-0.518;2022-07-29T15:21:23;5.03;;;1.40;;
39434;SDS011;30098;51.880;-0.518;2022-07-29T15:23:49;4.03;;;1.42;;
39434;SDS011;30098;51.880;-0.518;2022-07-29T15:26:14;5.15;;;1.75;;
39434;SDS011;30098;51.880;-0.518;2022-07-29T15:28:40;2.50;;;1.00;;
39434;SDS011;30098;51.880;-0.518;2022-07-29T15:31:06;4.20;;;2.00;;
39434;SDS011;30098;51.880;-0.518;2022-07-29T15:33:31;4.70;;;1.45;;
39434;SDS011;30098;51.880;-0.518;2022-07-29T15:35:57;3.42;;;1.33;;
39434;SDS011;30098;51.880;-0.518;2022-07-29T15:38:22;4.40;;;1.30;;
39434;SDS011;30098;51.880;-0.518;2022-07-29T15:40:48;4.75;;;1.30;;
39434;SDS011;30098;51.880;-0.518;2022-07-29T15:43:13;4.97;;;1.40;;
39434;SDS011;30098;51.880;-0.518;2022-07-29T15:45:39;5.45;;;1.48;;
39434;SDS011;30098;51.880;-0.518;2022-07-29T15:48:07;3.80;;;1.25;;
39434;SDS011;30098;51.880;-0.518;2022-07-29T15:50:34;5.78;;;1.90;;
39434;SDS011;30098;51.880;-0.518;2022-07-29T15:53:00;6.28;;;1.70;;
39434;SDS011;30098;51.880;-0.518;2022-07-29T15:55:26;6.32;;;2.10;;
39434;SDS011;30098;51.880;-0.518;2022-07-29T15:57:52;8.82;;;2.40;;